Main page
METAR-TAF:

METAR-TAF

Airports :

Amman Civil Airport

Amman, Jordan

latitude: 31-59N, longitude: 035-59E, elevation: 767 m

Current weather observation

The report was made 1 hour and 8 minutes ago, at 08:00 UTC
Wind 8 kt from the North/Northwest
Temperature 27°C
Humidity 42%
Pressure 1016 hPa
Visibility: 5000 m
haze

METAR: OJAM 210800Z 33008KT 5000 HZ NSC 27/13 Q1016 NOSIG

Time: 12:08 (09:08 UTC)

Forecast

The report was made 4 hours and 16 minutes ago, at 04:52 UTC
Forecast valid from 21 at 06 UTC to 22 at 12 UTC
Wind 8 kt from the West/Northwest
Visibility: 5000 m
haze
Probability 30% :
Temporary
from 22 at 01 UTC to 22 at 05 UTC
Visibility: 3000 m
Few clouds at a height of 3500 ft
mist

TAF: OJAM 210452Z 2106/2212 29008KT 5000 HZ PROB30 TEMPO 2201/2205 3000 BR FEW035

Weather observations and forecasts of more than 4000 airports (METAR and TAF reports).

The available stations are represented by yellow and red dots on the map.

Hover mouse over dot to see the name of the station.

Then click to see weather observations and forecasts.

To change the map : click on the green buttons with a black cross to zoom in, on the green button with a dash to zoom out, or on the green arrows for adjacent maps.


METAR-TAF: